Terminal Aerodrome Forecast
Issued by NWS

Home | Current Version | Previous Version | Graphics & Text | Print | Product List | Glossary On
Versions: 1 2 3 4 5 6 7 8 9 10 11 12 13 14 15 16
000
FTUS43 KICT 231000 AAA
TAFRSL
TAF AMD
KRSL 231016Z 2310/2406 05007KT P6SM SCT015 BKN250
      TEMPO 2310/2314 BKN015
     FM231500 09007KT P6SM SCT250
     FM240200 13008KT P6SM SCT080=

USA.gov is the U.S. government's official web portal to all federal, state and local government web resources and services.